sensor_id;sensor_type;location;lat;lon;timestamp;P1;durP1;ratioP1;P2;durP2;ratioP2
71648;SDS011;70112;45.624;11.760;2023-12-20T00:01:19;109.00;;;63.60;;
71648;SDS011;70112;45.624;11.760;2023-12-20T00:03:45;123.50;;;68.60;;
71648;SDS011;70112;45.624;11.760;2023-12-20T00:06:21;112.10;;;66.50;;
71648;SDS011;70112;45.624;11.760;2023-12-20T00:08:46;106.90;;;64.70;;
71648;SDS011;70112;45.624;11.760;2023-12-20T00:11:13;107.60;;;63.70;;
71648;SDS011;70112;45.624;11.760;2023-12-20T00:13:41;107.40;;;65.60;;
71648;SDS011;70112;45.624;11.760;2023-12-20T00:16:07;111.10;;;64.20;;
71648;SDS011;70112;45.624;11.760;2023-12-20T00:18:32;107.40;;;65.40;;
71648;SDS011;70112;45.624;11.760;2023-12-20T00:20:58;106.50;;;67.60;;
71648;SDS011;70112;45.624;11.760;2023-12-20T00:23:24;107.70;;;67.10;;
71648;SDS011;70112;45.624;11.760;2023-12-20T00:25:52;113.60;;;69.90;;
71648;SDS011;70112;45.624;11.760;2023-12-20T00:28:20;112.50;;;68.80;;
71648;SDS011;70112;45.624;11.760;2023-12-20T00:30:45;111.70;;;66.30;;
71648;SDS011;70112;45.624;11.760;2023-12-20T00:33:11;101.90;;;64.30;;
71648;SDS011;70112;45.624;11.760;2023-12-20T00:35:37;93.10;;;60.90;;
71648;SDS011;70112;45.624;11.760;2023-12-20T00:38:02;91.00;;;59.90;;
71648;SDS011;70112;45.624;11.760;2023-12-20T00:40:30;96.60;;;62.20;;
71648;SDS011;70112;45.624;11.760;2023-12-20T00:42:56;96.60;;;60.80;;
71648;SDS011;70112;45.624;11.760;2023-12-20T00:45:21;98.40;;;62.90;;
71648;SDS011;70112;45.624;11.760;2023-12-20T00:47:59;94.30;;;58.70;;
71648;SDS011;70112;45.624;11.760;2023-12-20T00:50:27;97.30;;;60.40;;
71648;SDS011;70112;45.624;11.760;2023-12-20T00:52:53;91.60;;;58.10;;
71648;SDS011;70112;45.624;11.760;2023-12-20T00:55:20;90.40;;;59.00;;
71648;SDS011;70112;45.624;11.760;2023-12-20T00:57:45;94.90;;;60.90;;
71648;SDS011;70112;45.624;11.760;2023-12-20T01:00:11;98.30;;;64.30;;
71648;SDS011;70112;45.624;11.760;2023-12-20T01:02:39;99.40;;;63.60;;
71648;SDS011;70112;45.624;11.760;2023-12-20T01:05:06;100.90;;;61.90;;
71648;SDS011;70112;45.624;11.760;2023-12-20T01:07:32;91.60;;;59.70;;
71648;SDS011;70112;45.624;11.760;2023-12-20T01:09:59;91.20;;;56.40;;
71648;SDS011;70112;45.624;11.760;2023-12-20T01:12:25;86.90;;;56.20;;
71648;SDS011;70112;45.624;11.760;2023-12-20T01:14:50;94.70;;;57.20;;
71648;SDS011;70112;45.624;11.760;2023-12-20T01:17:16;95.80;;;58.80;;
71648;SDS011;70112;45.624;11.760;2023-12-20T01:20:02;96.40;;;59.60;;
71648;SDS011;70112;45.624;11.760;2023-12-20T01:22:28;88.10;;;58.40;;
71648;SDS011;70112;45.624;11.760;2023-12-20T01:24:53;97.70;;;60.70;;
71648;SDS011;70112;45.624;11.760;2023-12-20T01:27:19;96.60;;;61.40;;
71648;SDS011;70112;45.624;11.760;2023-12-20T01:29:45;93.10;;;61.30;;
71648;SDS011;70112;45.624;11.760;2023-12-20T01:32:10;92.80;;;59.60;;
71648;SDS011;70112;45.624;11.760;2023-12-20T01:34:36;87.20;;;57.20;;
71648;SDS011;70112;45.624;11.760;2023-12-20T01:37:01;92.50;;;57.50;;
71648;SDS011;70112;45.624;11.760;2023-12-20T01:39:28;85.30;;;55.00;;
71648;SDS011;70112;45.624;11.760;2023-12-20T01:41:56;89.80;;;56.00;;
71648;SDS011;70112;45.624;11.760;2023-12-20T01:44:42;85.60;;;55.10;;
71648;SDS011;70112;45.624;11.760;2023-12-20T01:47:10;95.00;;;56.00;;
71648;SDS011;70112;45.624;11.760;2023-12-20T01:49:36;85.60;;;54.70;;
71648;SDS011;70112;45.624;11.760;2023-12-20T01:52:02;88.90;;;54.10;;
71648;SDS011;70112;45.624;11.760;2023-12-20T01:54:29;84.30;;;55.80;;
71648;SDS011;70112;45.624;11.760;2023-12-20T01:56:55;94.40;;;58.90;;
71648;SDS011;70112;45.624;11.760;2023-12-20T01:59:23;98.40;;;59.30;;
71648;SDS011;70112;45.624;11.760;2023-12-20T02:02:09;95.30;;;60.00;;
71648;SDS011;70112;45.624;11.760;2023-12-20T02:04:46;105.00;;;59.90;;
71648;SDS011;70112;45.624;11.760;2023-12-20T02:07:14;99.50;;;58.60;;
71648;SDS011;70112;45.624;11.760;2023-12-20T02:10:01;91.60;;;57.30;;
71648;SDS011;70112;45.624;11.760;2023-12-20T02:12:27;89.10;;;54.10;;
71648;SDS011;70112;45.624;11.760;2023-12-20T02:15:03;88.50;;;55.80;;
71648;SDS011;70112;45.624;11.760;2023-12-20T02:17:33;82.90;;;54.70;;
71648;SDS011;70112;45.624;11.760;2023-12-20T02:20:05;90.70;;;54.20;;
71648;SDS011;70112;45.624;11.760;2023-12-20T02:22:34;84.30;;;53.50;;
71648;SDS011;70112;45.624;11.760;2023-12-20T02:24:59;76.50;;;51.70;;
71648;SDS011;70112;45.624;11.760;2023-12-20T02:27:29;77.10;;;50.40;;
71648;SDS011;70112;45.624;11.760;2023-12-20T02:29:55;87.30;;;52.20;;
71648;SDS011;70112;45.624;11.760;2023-12-20T02:32:21;84.50;;;52.70;;
71648;SDS011;70112;45.624;11.760;2023-12-20T02:34:49;77.80;;;53.60;;
71648;SDS011;70112;45.624;11.760;2023-12-20T02:39:53;88.30;;;55.40;;
71648;SDS011;70112;45.624;11.760;2023-12-20T02:42:40;87.40;;;55.50;;
71648;SDS011;70112;45.624;11.760;2023-12-20T02:45:06;88.80;;;56.70;;
71648;SDS011;70112;45.624;11.760;2023-12-20T02:47:32;82.30;;;52.20;;
71648;SDS011;70112;45.624;11.760;2023-12-20T02:49:58;89.80;;;51.90;;
71648;SDS011;70112;45.624;11.760;2023-12-20T02:52:39;79.30;;;50.60;;
71648;SDS011;70112;45.624;11.760;2023-12-20T02:55:17;75.00;;;51.40;;
71648;SDS011;70112;45.624;11.760;2023-12-20T02:57:48;83.10;;;50.70;;
71648;SDS011;70112;45.624;11.760;2023-12-20T03:00:16;106.80;;;60.10;;
71648;SDS011;70112;45.624;11.760;2023-12-20T03:02:45;88.40;;;53.30;;
71648;SDS011;70112;45.624;11.760;2023-12-20T03:05:11;82.30;;;51.60;;
71648;SDS011;70112;45.624;11.760;2023-12-20T03:07:37;89.30;;;51.70;;
71648;SDS011;70112;45.624;11.760;2023-12-20T03:10:04;81.70;;;51.00;;
71648;SDS011;70112;45.624;11.760;2023-12-20T03:12:31;73.00;;;50.20;;
71648;SDS011;70112;45.624;11.760;2023-12-20T03:14:57;82.10;;;52.40;;
71648;SDS011;70112;45.624;11.760;2023-12-20T03:17:23;80.30;;;52.60;;
71648;SDS011;70112;45.624;11.760;2023-12-20T03:19:48;74.60;;;50.40;;
71648;SDS011;70112;45.624;11.760;2023-12-20T03:22:14;76.30;;;49.90;;
71648;SDS011;70112;45.624;11.760;2023-12-20T03:24:40;71.60;;;48.10;;
71648;SDS011;70112;45.624;11.760;2023-12-20T03:27:11;73.00;;;48.70;;
71648;SDS011;70112;45.624;11.760;2023-12-20T03:29:39;76.00;;;46.40;;
71648;SDS011;70112;45.624;11.760;2023-12-20T03:32:25;72.30;;;45.70;;
71648;SDS011;70112;45.624;11.760;2023-12-20T03:35:00;93.10;;;51.50;;
71648;SDS011;70112;45.624;11.760;2023-12-20T03:37:25;88.30;;;52.10;;
71648;SDS011;70112;45.624;11.760;2023-12-20T03:39:51;85.50;;;51.90;;
71648;SDS011;70112;45.624;11.760;2023-12-20T03:42:17;86.10;;;50.60;;
71648;SDS011;70112;45.624;11.760;2023-12-20T03:44:42;84.00;;;50.90;;
71648;SDS011;70112;45.624;11.760;2023-12-20T03:47:08;87.50;;;50.50;;
71648;SDS011;70112;45.624;11.760;2023-12-20T03:49:34;87.50;;;50.60;;
71648;SDS011;70112;45.624;11.760;2023-12-20T03:52:02;78.50;;;48.30;;
71648;SDS011;70112;45.624;11.760;2023-12-20T03:54:28;85.70;;;49.70;;
71648;SDS011;70112;45.624;11.760;2023-12-20T03:56:54;75.20;;;48.60;;
71648;SDS011;70112;45.624;11.760;2023-12-20T03:59:30;81.90;;;48.60;;
71648;SDS011;70112;45.624;11.760;2023-12-20T04:02:00;74.90;;;48.50;;
71648;SDS011;70112;45.624;11.760;2023-12-20T04:04:31;87.90;;;51.90;;
71648;SDS011;70112;45.624;11.760;2023-12-20T04:07:00;100.20;;;54.20;;
71648;SDS011;70112;45.624;11.760;2023-12-20T04:09:26;115.20;;;60.90;;
71648;SDS011;70112;45.624;11.760;2023-12-20T04:11:51;125.70;;;66.30;;
71648;SDS011;70112;45.624;11.760;2023-12-20T04:14:17;113.00;;;59.80;;
71648;SDS011;70112;45.624;11.760;2023-12-20T04:16:42;88.00;;;53.70;;
71648;SDS011;70112;45.624;11.760;2023-12-20T04:19:08;76.80;;;48.60;;
71648;SDS011;70112;45.624;11.760;2023-12-20T04:21:37;80.20;;;49.80;;
71648;SDS011;70112;45.624;11.760;2023-12-20T04:24:03;76.20;;;48.50;;
71648;SDS011;70112;45.624;11.760;2023-12-20T04:26:29;79.50;;;50.50;;
71648;SDS011;70112;45.624;11.760;2023-12-20T04:28:54;75.50;;;48.30;;
71648;SDS011;70112;45.624;11.760;2023-12-20T04:31:20;77.20;;;47.20;;
71648;SDS011;70112;45.624;11.760;2023-12-20T04:33:46;71.90;;;46.00;;
71648;SDS011;70112;45.624;11.760;2023-12-20T04:36:11;70.70;;;45.80;;
71648;SDS011;70112;45.624;11.760;2023-12-20T04:38:39;67.20;;;45.20;;
71648;SDS011;70112;45.624;11.760;2023-12-20T04:41:05;66.70;;;42.90;;
71648;SDS011;70112;45.624;11.760;2023-12-20T04:43:31;65.50;;;43.40;;
71648;SDS011;70112;45.624;11.760;2023-12-20T04:45:57;64.00;;;41.20;;
71648;SDS011;70112;45.624;11.760;2023-12-20T04:48:22;56.80;;;39.90;;
71648;SDS011;70112;45.624;11.760;2023-12-20T04:50:48;63.60;;;41.10;;
71648;SDS011;70112;45.624;11.760;2023-12-20T04:53:13;58.30;;;41.00;;
71648;SDS011;70112;45.624;11.760;2023-12-20T04:55:39;64.10;;;40.70;;
71648;SDS011;70112;45.624;11.760;2023-12-20T04:58:05;58.80;;;43.10;;
71648;SDS011;70112;45.624;11.760;2023-12-20T05:00:31;63.80;;;43.30;;
71648;SDS011;70112;45.624;11.760;2023-12-20T05:02:59;61.50;;;43.20;;
71648;SDS011;70112;45.624;11.760;2023-12-20T05:05:25;61.70;;;42.90;;
71648;SDS011;70112;45.624;11.760;2023-12-20T05:07:50;59.10;;;40.70;;
71648;SDS011;70112;45.624;11.760;2023-12-20T05:10:16;53.40;;;38.30;;
71648;SDS011;70112;45.624;11.760;2023-12-20T05:12:42;50.80;;;37.10;;
71648;SDS011;70112;45.624;11.760;2023-12-20T05:15:08;54.10;;;37.60;;
71648;SDS011;70112;45.624;11.760;2023-12-20T05:17:34;55.30;;;37.20;;
71648;SDS011;70112;45.624;11.760;2023-12-20T05:20:00;58.90;;;40.50;;
71648;SDS011;70112;45.624;11.760;2023-12-20T05:22:26;54.20;;;38.40;;
71648;SDS011;70112;45.624;11.760;2023-12-20T05:24:52;50.70;;;38.00;;
71648;SDS011;70112;45.624;11.760;2023-12-20T05:27:18;50.90;;;36.60;;
71648;SDS011;70112;45.624;11.760;2023-12-20T05:29:44;52.30;;;38.60;;
71648;SDS011;70112;45.624;11.760;2023-12-20T05:32:12;54.40;;;37.90;;
71648;SDS011;70112;45.624;11.760;2023-12-20T05:34:38;54.20;;;37.50;;
71648;SDS011;70112;45.624;11.760;2023-12-20T05:37:06;55.00;;;37.10;;
71648;SDS011;70112;45.624;11.760;2023-12-20T05:39:31;50.20;;;35.90;;
71648;SDS011;70112;45.624;11.760;2023-12-20T05:41:57;51.00;;;35.50;;
71648;SDS011;70112;45.624;11.760;2023-12-20T05:44:23;50.20;;;35.20;;
71648;SDS011;70112;45.624;11.760;2023-12-20T05:46:49;55.00;;;37.40;;
71648;SDS011;70112;45.624;11.760;2023-12-20T05:49:14;57.30;;;39.50;;
71648;SDS011;70112;45.624;11.760;2023-12-20T05:51:40;59.50;;;42.40;;
71648;SDS011;70112;45.624;11.760;2023-12-20T05:54:26;62.50;;;43.10;;
71648;SDS011;70112;45.624;11.760;2023-12-20T05:56:52;62.60;;;43.40;;
71648;SDS011;70112;45.624;11.760;2023-12-20T05:59:18;66.40;;;45.70;;
71648;SDS011;70112;45.624;11.760;2023-12-20T06:02:04;59.90;;;43.20;;
71648;SDS011;70112;45.624;11.760;2023-12-20T06:04:30;66.10;;;41.20;;
71648;SDS011;70112;45.624;11.760;2023-12-20T06:06:56;55.50;;;39.50;;
71648;SDS011;70112;45.624;11.760;2023-12-20T06:09:22;50.30;;;38.40;;
71648;SDS011;70112;45.624;11.760;2023-12-20T06:12:08;56.20;;;39.10;;
71648;SDS011;70112;45.624;11.760;2023-12-20T06:14:34;53.20;;;39.80;;
71648;SDS011;70112;45.624;11.760;2023-12-20T06:17:00;64.50;;;42.00;;
71648;SDS011;70112;45.624;11.760;2023-12-20T06:19:29;56.20;;;40.90;;
71648;SDS011;70112;45.624;11.760;2023-12-20T06:22:05;53.50;;;40.20;;
71648;SDS011;70112;45.624;11.760;2023-12-20T06:24:30;56.20;;;40.40;;
71648;SDS011;70112;45.624;11.760;2023-12-20T06:26:58;56.30;;;40.60;;
71648;SDS011;70112;45.624;11.760;2023-12-20T06:29:23;56.80;;;40.60;;
71648;SDS011;70112;45.624;11.760;2023-12-20T06:31:49;56.00;;;39.70;;
71648;SDS011;70112;45.624;11.760;2023-12-20T06:34:15;57.00;;;38.00;;
71648;SDS011;70112;45.624;11.760;2023-12-20T06:36:40;45.40;;;34.30;;
71648;SDS011;70112;45.624;11.760;2023-12-20T06:39:15;44.20;;;32.70;;
71648;SDS011;70112;45.624;11.760;2023-12-20T06:41:51;46.50;;;33.30;;
71648;SDS011;70112;45.624;11.760;2023-12-20T06:44:16;47.50;;;34.00;;
71648;SDS011;70112;45.624;11.760;2023-12-20T06:46:44;43.90;;;32.60;;
71648;SDS011;70112;45.624;11.760;2023-12-20T06:49:30;47.80;;;34.30;;
71648;SDS011;70112;45.624;11.760;2023-12-20T06:51:56;49.90;;;34.20;;
71648;SDS011;70112;45.624;11.760;2023-12-20T06:54:30;59.60;;;35.70;;
71648;SDS011;70112;45.624;11.760;2023-12-20T06:57:17;50.70;;;34.60;;
71648;SDS011;70112;45.624;11.760;2023-12-20T06:59:42;44.60;;;32.90;;
71648;SDS011;70112;45.624;11.760;2023-12-20T07:02:10;52.50;;;34.50;;
71648;SDS011;70112;45.624;11.760;2023-12-20T07:04:41;47.60;;;33.60;;
71648;SDS011;70112;45.624;11.760;2023-12-20T07:07:07;45.30;;;31.90;;
71648;SDS011;70112;45.624;11.760;2023-12-20T07:09:33;52.70;;;35.90;;
71648;SDS011;70112;45.624;11.760;2023-12-20T07:12:02;63.40;;;39.70;;
71648;SDS011;70112;45.624;11.760;2023-12-20T07:14:28;67.30;;;42.30;;
71648;SDS011;70112;45.624;11.760;2023-12-20T07:16:54;68.40;;;42.80;;
71648;SDS011;70112;45.624;11.760;2023-12-20T07:19:20;71.80;;;45.90;;
71648;SDS011;70112;45.624;11.760;2023-12-20T07:21:48;90.60;;;52.00;;
71648;SDS011;70112;45.624;11.760;2023-12-20T07:24:14;73.80;;;47.00;;
71648;SDS011;70112;45.624;11.760;2023-12-20T07:26:42;56.60;;;38.20;;
71648;SDS011;70112;45.624;11.760;2023-12-20T07:29:08;63.40;;;39.40;;
71648;SDS011;70112;45.624;11.760;2023-12-20T07:31:34;64.70;;;41.20;;
71648;SDS011;70112;45.624;11.760;2023-12-20T07:34:00;70.90;;;45.10;;
71648;SDS011;70112;45.624;11.760;2023-12-20T07:36:25;75.00;;;46.10;;
71648;SDS011;70112;45.624;11.760;2023-12-20T07:38:51;70.00;;;40.50;;
71648;SDS011;70112;45.624;11.760;2023-12-20T07:41:20;71.70;;;41.70;;
71648;SDS011;70112;45.624;11.760;2023-12-20T07:43:47;65.00;;;41.30;;
71648;SDS011;70112;45.624;11.760;2023-12-20T07:46:12;68.80;;;42.40;;
71648;SDS011;70112;45.624;11.760;2023-12-20T07:48:38;63.10;;;42.10;;
71648;SDS011;70112;45.624;11.760;2023-12-20T07:51:04;62.50;;;43.70;;
71648;SDS011;70112;45.624;11.760;2023-12-20T07:53:32;63.70;;;42.60;;
71648;SDS011;70112;45.624;11.760;2023-12-20T07:55:58;58.30;;;38.50;;
71648;SDS011;70112;45.624;11.760;2023-12-20T07:58:24;54.50;;;33.70;;
71648;SDS011;70112;45.624;11.760;2023-12-20T08:03:25;53.20;;;34.00;;
71648;SDS011;70112;45.624;11.760;2023-12-20T08:05:51;55.70;;;38.00;;
71648;SDS011;70112;45.624;11.760;2023-12-20T08:08:16;55.80;;;38.80;;
71648;SDS011;70112;45.624;11.760;2023-12-20T08:10:52;58.20;;;40.20;;
71648;SDS011;70112;45.624;11.760;2023-12-20T08:13:18;61.90;;;39.20;;
71648;SDS011;70112;45.624;11.760;2023-12-20T08:15:44;67.80;;;42.00;;
71648;SDS011;70112;45.624;11.760;2023-12-20T08:18:32;61.10;;;41.50;;
71648;SDS011;70112;45.624;11.760;2023-12-20T08:21:02;63.70;;;39.80;;
71648;SDS011;70112;45.624;11.760;2023-12-20T08:23:33;57.10;;;39.60;;
71648;SDS011;70112;45.624;11.760;2023-12-20T08:26:04;77.20;;;47.30;;
71648;SDS011;70112;45.624;11.760;2023-12-20T08:28:30;74.20;;;50.30;;
71648;SDS011;70112;45.624;11.760;2023-12-20T08:31:00;78.80;;;49.90;;
71648;SDS011;70112;45.624;11.760;2023-12-20T08:33:25;70.50;;;44.90;;
71648;SDS011;70112;45.624;11.760;2023-12-20T08:35:51;70.70;;;43.40;;
71648;SDS011;70112;45.624;11.760;2023-12-20T08:38:17;65.20;;;42.70;;
71648;SDS011;70112;45.624;11.760;2023-12-20T08:40:43;63.70;;;41.50;;
71648;SDS011;70112;45.624;11.760;2023-12-20T08:43:09;61.00;;;40.30;;
71648;SDS011;70112;45.624;11.760;2023-12-20T08:45:35;65.40;;;40.20;;
71648;SDS011;70112;45.624;11.760;2023-12-20T08:48:01;56.00;;;37.30;;
71648;SDS011;70112;45.624;11.760;2023-12-20T08:50:27;59.80;;;37.90;;
71648;SDS011;70112;45.624;11.760;2023-12-20T08:52:52;70.60;;;38.40;;
71648;SDS011;70112;45.624;11.760;2023-12-20T08:55:19;99.60;;;44.70;;
71648;SDS011;70112;45.624;11.760;2023-12-20T08:57:45;107.10;;;48.30;;
71648;SDS011;70112;45.624;11.760;2023-12-20T09:00:11;133.10;;;53.90;;
71648;SDS011;70112;45.624;11.760;2023-12-20T09:02:37;136.80;;;55.80;;
71648;SDS011;70112;45.624;11.760;2023-12-20T09:05:03;111.40;;;52.90;;
71648;SDS011;70112;45.624;11.760;2023-12-20T09:07:29;91.70;;;45.70;;
71648;SDS011;70112;45.624;11.760;2023-12-20T09:09:56;69.00;;;38.90;;
71648;SDS011;70112;45.624;11.760;2023-12-20T09:12:22;51.30;;;33.90;;
71648;SDS011;70112;45.624;11.760;2023-12-20T09:14:49;40.70;;;29.30;;
71648;SDS011;70112;45.624;11.760;2023-12-20T09:17:16;42.10;;;28.70;;
71648;SDS011;70112;45.624;11.760;2023-12-20T09:19:43;50.40;;;27.00;;
71648;SDS011;70112;45.624;11.760;2023-12-20T09:22:10;35.70;;;25.80;;
71648;SDS011;70112;45.624;11.760;2023-12-20T09:24:36;35.70;;;25.10;;
71648;SDS011;70112;45.624;11.760;2023-12-20T09:27:02;55.60;;;28.70;;
71648;SDS011;70112;45.624;11.760;2023-12-20T09:29:28;64.00;;;30.30;;
71648;SDS011;70112;45.624;11.760;2023-12-20T09:31:54;49.10;;;26.80;;
71648;SDS011;70112;45.624;11.760;2023-12-20T09:34:20;39.70;;;24.90;;
71648;SDS011;70112;45.624;11.760;2023-12-20T09:36:46;45.10;;;25.60;;
71648;SDS011;70112;45.624;11.760;2023-12-20T09:39:16;82.00;;;33.30;;
71648;SDS011;70112;45.624;11.760;2023-12-20T09:44:27;67.50;;;34.20;;
71648;SDS011;70112;45.624;11.760;2023-12-20T09:46:55;64.90;;;34.70;;
71648;SDS011;70112;45.624;11.760;2023-12-20T09:49:21;75.30;;;36.10;;
71648;SDS011;70112;45.624;11.760;2023-12-20T09:51:48;74.10;;;33.10;;
71648;SDS011;70112;45.624;11.760;2023-12-20T09:54:18;56.20;;;29.00;;
71648;SDS011;70112;45.624;11.760;2023-12-20T09:56:45;39.90;;;24.70;;
71648;SDS011;70112;45.624;11.760;2023-12-20T09:59:11;55.20;;;25.70;;
71648;SDS011;70112;45.624;11.760;2023-12-20T10:01:39;49.50;;;26.10;;
71648;SDS011;70112;45.624;11.760;2023-12-20T10:04:08;49.80;;;25.60;;
71648;SDS011;70112;45.624;11.760;2023-12-20T10:06:41;50.80;;;26.10;;
71648;SDS011;70112;45.624;11.760;2023-12-20T10:09:09;41.10;;;25.90;;
71648;SDS011;70112;45.624;11.760;2023-12-20T10:11:36;48.60;;;29.20;;
71648;SDS011;70112;45.624;11.760;2023-12-20T10:14:03;44.30;;;27.20;;
71648;SDS011;70112;45.624;11.760;2023-12-20T10:16:30;43.90;;;28.90;;
71648;SDS011;70112;45.624;11.760;2023-12-20T10:18:56;38.40;;;27.40;;
71648;SDS011;70112;45.624;11.760;2023-12-20T10:21:22;39.60;;;28.90;;
71648;SDS011;70112;45.624;11.760;2023-12-20T10:23:49;41.80;;;28.90;;
71648;SDS011;70112;45.624;11.760;2023-12-20T10:26:26;38.60;;;27.20;;
71648;SDS011;70112;45.624;11.760;2023-12-20T10:28:56;39.00;;;28.40;;
71648;SDS011;70112;45.624;11.760;2023-12-20T10:31:34;43.20;;;28.90;;
71648;SDS011;70112;45.624;11.760;2023-12-20T10:34:20;42.90;;;29.20;;
71648;SDS011;70112;45.624;11.760;2023-12-20T10:36:46;39.20;;;30.70;;
71648;SDS011;70112;45.624;11.760;2023-12-20T10:39:14;41.90;;;31.80;;
71648;SDS011;70112;45.624;11.760;2023-12-20T10:41:41;36.70;;;30.00;;
71648;SDS011;70112;45.624;11.760;2023-12-20T10:44:08;42.50;;;30.00;;
71648;SDS011;70112;45.624;11.760;2023-12-20T10:46:34;38.20;;;29.10;;
71648;SDS011;70112;45.624;11.760;2023-12-20T10:49:05;36.90;;;28.00;;
71648;SDS011;70112;45.624;11.760;2023-12-20T10:51:31;37.00;;;28.10;;
71648;SDS011;70112;45.624;11.760;2023-12-20T10:54:06;37.30;;;25.70;;
71648;SDS011;70112;45.624;11.760;2023-12-20T10:56:34;29.70;;;22.50;;
71648;SDS011;70112;45.624;11.760;2023-12-20T10:59:02;30.10;;;22.90;;
71648;SDS011;70112;45.624;11.760;2023-12-20T11:01:31;30.40;;;23.80;;
71648;SDS011;70112;45.624;11.760;2023-12-20T11:03:59;34.60;;;26.50;;
71648;SDS011;70112;45.624;11.760;2023-12-20T11:06:47;34.20;;;26.30;;
71648;SDS011;70112;45.624;11.760;2023-12-20T11:09:25;35.90;;;26.40;;
71648;SDS011;70112;45.624;11.760;2023-12-20T11:12:02;37.90;;;26.40;;
71648;SDS011;70112;45.624;11.760;2023-12-20T11:14:59;35.70;;;25.50;;
71648;SDS011;70112;45.624;11.760;2023-12-20T11:17:29;34.90;;;25.80;;
71648;SDS011;70112;45.624;11.760;2023-12-20T11:22:27;36.50;;;27.00;;
71648;SDS011;70112;45.624;11.760;2023-12-20T11:25:07;31.70;;;24.60;;
71648;SDS011;70112;45.624;11.760;2023-12-20T11:27:35;34.50;;;24.60;;
71648;SDS011;70112;45.624;11.760;2023-12-20T11:30:05;39.60;;;26.70;;
71648;SDS011;70112;45.624;11.760;2023-12-20T11:35:18;42.90;;;29.50;;
71648;SDS011;70112;45.624;11.760;2023-12-20T11:37:45;47.30;;;32.80;;
71648;SDS011;70112;45.624;11.760;2023-12-20T11:40:16;42.70;;;32.70;;
71648;SDS011;70112;45.624;11.760;2023-12-20T11:42:49;48.30;;;32.80;;
71648;SDS011;70112;45.624;11.760;2023-12-20T11:45:18;45.30;;;31.80;;
71648;SDS011;70112;45.624;11.760;2023-12-20T11:47:49;42.90;;;32.30;;
71648;SDS011;70112;45.624;11.760;2023-12-20T11:52:48;43.10;;;30.10;;
71648;SDS011;70112;45.624;11.760;2023-12-20T11:55:14;44.20;;;31.20;;
71648;SDS011;70112;45.624;11.760;2023-12-20T11:57:42;47.80;;;32.20;;
71648;SDS011;70112;45.624;11.760;2023-12-20T12:00:08;45.30;;;30.50;;
71648;SDS011;70112;45.624;11.760;2023-12-20T12:02:35;39.30;;;27.50;;
71648;SDS011;70112;45.624;11.760;2023-12-20T12:05:10;35.50;;;26.20;;
71648;SDS011;70112;45.624;11.760;2023-12-20T12:07:35;37.50;;;27.60;;
71648;SDS011;70112;45.624;11.760;2023-12-20T12:10:01;40.70;;;29.00;;
71648;SDS011;70112;45.624;11.760;2023-12-20T12:12:29;37.90;;;28.20;;
71648;SDS011;70112;45.624;11.760;2023-12-20T12:14:55;40.40;;;28.30;;
71648;SDS011;70112;45.624;11.760;2023-12-20T12:17:23;38.20;;;28.40;;
71648;SDS011;70112;45.624;11.760;2023-12-20T12:19:48;45.90;;;29.30;;
71648;SDS011;70112;45.624;11.760;2023-12-20T12:22:15;44.00;;;27.80;;
71648;SDS011;70112;45.624;11.760;2023-12-20T12:24:44;38.40;;;29.80;;
71648;SDS011;70112;45.624;11.760;2023-12-20T12:27:12;39.60;;;30.80;;
71648;SDS011;70112;45.624;11.760;2023-12-20T12:29:38;48.00;;;32.80;;
71648;SDS011;70112;45.624;11.760;2023-12-20T12:32:06;42.20;;;31.10;;
71648;SDS011;70112;45.624;11.760;2023-12-20T12:34:33;40.60;;;28.70;;
71648;SDS011;70112;45.624;11.760;2023-12-20T12:37:03;38.10;;;27.90;;
71648;SDS011;70112;45.624;11.760;2023-12-20T12:39:29;37.70;;;26.50;;
71648;SDS011;70112;45.624;11.760;2023-12-20T12:41:56;40.40;;;29.40;;
71648;SDS011;70112;45.624;11.760;2023-12-20T12:44:25;48.60;;;32.40;;
71648;SDS011;70112;45.624;11.760;2023-12-20T12:46:50;54.80;;;34.80;;
71648;SDS011;70112;45.624;11.760;2023-12-20T12:49:16;50.70;;;36.00;;
71648;SDS011;70112;45.624;11.760;2023-12-20T12:51:43;53.70;;;36.40;;
71648;SDS011;70112;45.624;11.760;2023-12-20T12:54:09;51.50;;;37.70;;
71648;SDS011;70112;45.624;11.760;2023-12-20T12:56:35;61.20;;;43.00;;
71648;SDS011;70112;45.624;11.760;2023-12-20T12:59:01;57.60;;;40.00;;
71648;SDS011;70112;45.624;11.760;2023-12-20T13:01:27;55.80;;;37.60;;
71648;SDS011;70112;45.624;11.760;2023-12-20T13:03:53;42.50;;;32.50;;
71648;SDS011;70112;45.624;11.760;2023-12-20T13:06:19;43.40;;;33.00;;
